sensor_id;sensor_type;location;lat;lon;timestamp;P1;durP1;ratioP1;P2;durP2;ratioP2
19364;SDS011;9818;48.382;10.850;2022-12-04T01:20:20;10.33;;;6.63;;
19364;SDS011;9818;48.382;10.850;2022-12-04T01:22:49;21.43;;;9.60;;
19364;SDS011;9818;48.382;10.850;2022-12-04T01:25:18;16.37;;;9.67;;
19364;SDS011;9818;48.382;10.850;2022-12-04T01:27:46;15.23;;;8.23;;
19364;SDS011;9818;48.382;10.850;2022-12-04T01:30:15;19.53;;;10.03;;
19364;SDS011;9818;48.382;10.850;2022-12-04T01:32:44;16.67;;;9.27;;
19364;SDS011;9818;48.382;10.850;2022-12-04T01:35:15;16.90;;;8.87;;
19364;SDS011;9818;48.382;10.850;2022-12-04T01:37:46;16.37;;;9.57;;
19364;SDS011;9818;48.382;10.850;2022-12-04T01:40:15;16.57;;;9.70;;
19364;SDS011;9818;48.382;10.850;2022-12-04T01:42:44;15.60;;;9.30;;
19364;SDS011;9818;48.382;10.850;2022-12-04T01:48:08;17.23;;;9.73;;
19364;SDS011;9818;48.382;10.850;2022-12-04T01:50:41;15.73;;;9.07;;
19364;SDS011;9818;48.382;10.850;2022-12-04T01:53:14;16.40;;;9.07;;
19364;SDS011;9818;48.382;10.850;2022-12-04T01:55:43;18.23;;;8.90;;
19364;SDS011;9818;48.382;10.850;2022-12-04T01:58:13;14.47;;;8.53;;
19364;SDS011;9818;48.382;10.850;2022-12-04T02:00:44;16.63;;;9.20;;
19364;SDS011;9818;48.382;10.850;2022-12-04T02:03:14;17.97;;;10.37;;
19364;SDS011;9818;48.382;10.850;2022-12-04T02:05:42;18.80;;;9.50;;
19364;SDS011;9818;48.382;10.850;2022-12-04T02:08:14;16.43;;;9.83;;
19364;SDS011;9818;48.382;10.850;2022-12-04T02:10:45;17.90;;;9.03;;
19364;SDS011;9818;48.382;10.850;2022-12-04T02:13:25;16.77;;;8.93;;
19364;SDS011;9818;48.382;10.850;2022-12-04T02:16:00;12.93;;;8.23;;
19364;SDS011;9818;48.382;10.850;2022-12-04T02:18:34;16.60;;;9.17;;
19364;SDS011;9818;48.382;10.850;2022-12-04T02:21:09;20.83;;;10.63;;
19364;SDS011;9818;48.382;10.850;2022-12-04T02:23:55;17.57;;;9.70;;
19364;SDS011;9818;48.382;10.850;2022-12-04T02:26:45;18.97;;;10.43;;
19364;SDS011;9818;48.382;10.850;2022-12-04T02:29:22;19.53;;;9.80;;
19364;SDS011;9818;48.382;10.850;2022-12-04T02:31:59;16.27;;;9.70;;
19364;SDS011;9818;48.382;10.850;2022-12-04T02:34:34;18.87;;;9.97;;
19364;SDS011;9818;48.382;10.850;2022-12-04T02:37:09;14.70;;;9.20;;
19364;SDS011;9818;48.382;10.850;2022-12-04T02:39:44;15.10;;;9.17;;
19364;SDS011;9818;48.382;10.850;2022-12-04T02:42:19;18.03;;;9.57;;
19364;SDS011;9818;48.382;10.850;2022-12-04T02:44:59;17.43;;;9.87;;
19364;SDS011;9818;48.382;10.850;2022-12-04T02:47:30;18.97;;;10.97;;
19364;SDS011;9818;48.382;10.850;2022-12-04T02:50:00;13.83;;;8.50;;
19364;SDS011;9818;48.382;10.850;2022-12-04T02:52:34;15.23;;;9.17;;
19364;SDS011;9818;48.382;10.850;2022-12-04T02:55:11;15.97;;;10.10;;
19364;SDS011;9818;48.382;10.850;2022-12-04T02:57:44;16.17;;;9.70;;
19364;SDS011;9818;48.382;10.850;2022-12-04T03:00:18;15.43;;;8.90;;
19364;SDS011;9818;48.382;10.850;2022-12-04T03:02:50;16.90;;;9.93;;
19364;SDS011;9818;48.382;10.850;2022-12-04T03:05:23;18.30;;;10.30;;
19364;SDS011;9818;48.382;10.850;2022-12-04T03:07:56;15.47;;;9.83;;
19364;SDS011;9818;48.382;10.850;2022-12-04T03:10:29;18.50;;;10.23;;
19364;SDS011;9818;48.382;10.850;2022-12-04T03:13:01;20.20;;;11.20;;
19364;SDS011;9818;48.382;10.850;2022-12-04T03:15:37;21.83;;;11.00;;
19364;SDS011;9818;48.382;10.850;2022-12-04T03:18:10;18.27;;;10.57;;
19364;SDS011;9818;48.382;10.850;2022-12-04T03:20:43;17.60;;;10.43;;
19364;SDS011;9818;48.382;10.850;2022-12-04T03:23:17;19.20;;;9.73;;
19364;SDS011;9818;48.382;10.850;2022-12-04T03:25:50;18.00;;;8.97;;
19364;SDS011;9818;48.382;10.850;2022-12-04T03:28:26;13.83;;;8.57;;
19364;SDS011;9818;48.382;10.850;2022-12-04T03:31:02;15.63;;;8.97;;
19364;SDS011;9818;48.382;10.850;2022-12-04T03:33:36;15.30;;;9.33;;
19364;SDS011;9818;48.382;10.850;2022-12-04T03:36:09;14.87;;;9.23;;
19364;SDS011;9818;48.382;10.850;2022-12-04T03:38:45;14.97;;;9.83;;
19364;SDS011;9818;48.382;10.850;2022-12-04T03:41:23;16.73;;;9.53;;
19364;SDS011;9818;48.382;10.850;2022-12-04T03:43:56;24.27;;;11.37;;
19364;SDS011;9818;48.382;10.850;2022-12-04T03:46:34;17.87;;;10.13;;
19364;SDS011;9818;48.382;10.850;2022-12-04T03:49:08;12.57;;;8.43;;
19364;SDS011;9818;48.382;10.850;2022-12-04T03:51:43;12.70;;;8.13;;
19364;SDS011;9818;48.382;10.850;2022-12-04T03:54:16;13.23;;;7.93;;
19364;SDS011;9818;48.382;10.850;2022-12-04T03:56:50;12.83;;;7.77;;
19364;SDS011;9818;48.382;10.850;2022-12-04T03:59:22;15.90;;;10.07;;
19364;SDS011;9818;48.382;10.850;2022-12-04T04:01:56;14.57;;;9.30;;
19364;SDS011;9818;48.382;10.850;2022-12-04T04:04:27;14.23;;;8.47;;
19364;SDS011;9818;48.382;10.850;2022-12-04T04:07:01;11.90;;;8.23;;
19364;SDS011;9818;48.382;10.850;2022-12-04T04:09:35;14.03;;;8.43;;
19364;SDS011;9818;48.382;10.850;2022-12-04T04:12:09;15.50;;;9.13;;
19364;SDS011;9818;48.382;10.850;2022-12-04T04:14:43;15.90;;;9.37;;
19364;SDS011;9818;48.382;10.850;2022-12-04T04:17:30;16.30;;;8.80;;
19364;SDS011;9818;48.382;10.850;2022-12-04T04:20:16;15.27;;;8.80;;
19364;SDS011;9818;48.382;10.850;2022-12-04T04:23:01;15.43;;;8.80;;
19364;SDS011;9818;48.382;10.850;2022-12-04T04:25:44;16.17;;;8.77;;
19364;SDS011;9818;48.382;10.850;2022-12-04T04:28:27;11.53;;;7.73;;
19364;SDS011;9818;48.382;10.850;2022-12-04T04:31:01;13.07;;;8.27;;
19364;SDS011;9818;48.382;10.850;2022-12-04T04:33:40;15.20;;;8.53;;
19364;SDS011;9818;48.382;10.850;2022-12-04T04:36:15;12.90;;;8.07;;
19364;SDS011;9818;48.382;10.850;2022-12-04T04:38:52;15.23;;;8.17;;
19364;SDS011;9818;48.382;10.850;2022-12-04T04:41:30;12.63;;;8.00;;
19364;SDS011;9818;48.382;10.850;2022-12-04T04:44:04;11.63;;;7.67;;
19364;SDS011;9818;48.382;10.850;2022-12-04T04:46:40;14.13;;;8.47;;
19364;SDS011;9818;48.382;10.850;2022-12-04T04:49:17;14.63;;;8.63;;
19364;SDS011;9818;48.382;10.850;2022-12-04T04:51:49;12.17;;;8.40;;
19364;SDS011;9818;48.382;10.850;2022-12-04T04:54:18;16.60;;;9.53;;
19364;SDS011;9818;48.382;10.850;2022-12-04T04:56:48;13.27;;;8.23;;
19364;SDS011;9818;48.382;10.850;2022-12-04T04:59:17;14.37;;;7.43;;
19364;SDS011;9818;48.382;10.850;2022-12-04T05:01:46;12.40;;;7.70;;
19364;SDS011;9818;48.382;10.850;2022-12-04T05:04:17;15.67;;;9.07;;
19364;SDS011;9818;48.382;10.850;2022-12-04T05:06:46;12.87;;;8.60;;
19364;SDS011;9818;48.382;10.850;2022-12-04T05:09:16;12.80;;;7.63;;
19364;SDS011;9818;48.382;10.850;2022-12-04T05:11:44;14.27;;;7.63;;
19364;SDS011;9818;48.382;10.850;2022-12-04T05:14:13;13.00;;;8.53;;
19364;SDS011;9818;48.382;10.850;2022-12-04T05:16:42;14.33;;;7.77;;
19364;SDS011;9818;48.382;10.850;2022-12-04T05:19:10;11.93;;;7.77;;
19364;SDS011;9818;48.382;10.850;2022-12-04T05:21:54;11.63;;;7.50;;
19364;SDS011;9818;48.382;10.850;2022-12-04T05:24:23;12.97;;;7.73;;
19364;SDS011;9818;48.382;10.850;2022-12-04T05:26:51;12.57;;;7.60;;
19364;SDS011;9818;48.382;10.850;2022-12-04T05:29:20;11.93;;;7.83;;
19364;SDS011;9818;48.382;10.850;2022-12-04T05:31:49;11.90;;;7.43;;
19364;SDS011;9818;48.382;10.850;2022-12-04T05:34:17;12.10;;;7.53;;
19364;SDS011;9818;48.382;10.850;2022-12-04T05:36:46;11.57;;;7.87;;
19364;SDS011;9818;48.382;10.850;2022-12-04T05:39:17;10.37;;;7.27;;
19364;SDS011;9818;48.382;10.850;2022-12-04T05:41:46;25.30;;;8.53;;
19364;SDS011;9818;48.382;10.850;2022-12-04T05:44:14;9.70;;;6.63;;
19364;SDS011;9818;48.382;10.850;2022-12-04T05:46:43;11.63;;;7.60;;
19364;SDS011;9818;48.382;10.850;2022-12-04T05:49:12;13.13;;;8.20;;
19364;SDS011;9818;48.382;10.850;2022-12-04T05:51:40;11.70;;;7.27;;
19364;SDS011;9818;48.382;10.850;2022-12-04T05:54:09;12.33;;;8.23;;
19364;SDS011;9818;48.382;10.850;2022-12-04T05:56:40;12.67;;;7.33;;
19364;SDS011;9818;48.382;10.850;2022-12-04T05:59:09;13.80;;;8.23;;
19364;SDS011;9818;48.382;10.850;2022-12-04T06:01:38;13.20;;;8.37;;
19364;SDS011;9818;48.382;10.850;2022-12-04T06:04:07;14.43;;;9.10;;
19364;SDS011;9818;48.382;10.850;2022-12-04T06:06:36;14.73;;;8.43;;
19364;SDS011;9818;48.382;10.850;2022-12-04T06:09:06;15.00;;;8.93;;
19364;SDS011;9818;48.382;10.850;2022-12-04T06:11:35;15.23;;;9.37;;
19364;SDS011;9818;48.382;10.850;2022-12-04T06:14:09;15.00;;;9.13;;
19364;SDS011;9818;48.382;10.850;2022-12-04T06:16:42;14.97;;;8.83;;
19364;SDS011;9818;48.382;10.850;2022-12-04T06:19:14;15.30;;;9.17;;
19364;SDS011;9818;48.382;10.850;2022-12-04T06:21:45;14.80;;;9.03;;
19364;SDS011;9818;48.382;10.850;2022-12-04T06:24:15;16.27;;;8.97;;
19364;SDS011;9818;48.382;10.850;2022-12-04T06:26:46;15.87;;;9.67;;
19364;SDS011;9818;48.382;10.850;2022-12-04T06:29:17;15.60;;;10.03;;
19364;SDS011;9818;48.382;10.850;2022-12-04T06:31:46;13.93;;;9.10;;
19364;SDS011;9818;48.382;10.850;2022-12-04T06:34:15;15.60;;;9.90;;
19364;SDS011;9818;48.382;10.850;2022-12-04T06:36:44;18.10;;;9.93;;
19364;SDS011;9818;48.382;10.850;2022-12-04T06:39:12;16.43;;;9.90;;
19364;SDS011;9818;48.382;10.850;2022-12-04T06:41:41;18.90;;;11.30;;
19364;SDS011;9818;48.382;10.850;2022-12-04T06:44:12;14.20;;;8.77;;
19364;SDS011;9818;48.382;10.850;2022-12-04T06:46:43;17.07;;;10.07;;
19364;SDS011;9818;48.382;10.850;2022-12-04T06:49:12;18.17;;;11.13;;
19364;SDS011;9818;48.382;10.850;2022-12-04T06:51:40;17.30;;;9.57;;
19364;SDS011;9818;48.382;10.850;2022-12-04T06:54:09;18.67;;;10.47;;
19364;SDS011;9818;48.382;10.850;2022-12-04T06:56:40;18.63;;;10.80;;
19364;SDS011;9818;48.382;10.850;2022-12-04T06:59:08;19.00;;;10.17;;
19364;SDS011;9818;48.382;10.850;2022-12-04T07:01:37;18.50;;;10.70;;
19364;SDS011;9818;48.382;10.850;2022-12-04T07:04:09;18.10;;;10.50;;
19364;SDS011;9818;48.382;10.850;2022-12-04T07:06:37;18.90;;;10.57;;
19364;SDS011;9818;48.382;10.850;2022-12-04T07:09:08;25.23;;;12.90;;
19364;SDS011;9818;48.382;10.850;2022-12-04T07:11:38;20.03;;;11.20;;
19364;SDS011;9818;48.382;10.850;2022-12-04T07:14:09;22.03;;;11.63;;
19364;SDS011;9818;48.382;10.850;2022-12-04T07:16:38;21.00;;;12.43;;
19364;SDS011;9818;48.382;10.850;2022-12-04T07:19:10;19.23;;;10.50;;
19364;SDS011;9818;48.382;10.850;2022-12-04T07:21:40;23.17;;;12.80;;
19364;SDS011;9818;48.382;10.850;2022-12-04T07:24:12;21.37;;;11.13;;
19364;SDS011;9818;48.382;10.850;2022-12-04T07:26:43;19.53;;;11.60;;
19364;SDS011;9818;48.382;10.850;2022-12-04T07:29:12;21.57;;;13.33;;
19364;SDS011;9818;48.382;10.850;2022-12-04T07:31:41;18.73;;;10.50;;
19364;SDS011;9818;48.382;10.850;2022-12-04T07:34:12;21.53;;;11.80;;
19364;SDS011;9818;48.382;10.850;2022-12-04T07:36:41;21.20;;;11.00;;
19364;SDS011;9818;48.382;10.850;2022-12-04T07:39:09;25.90;;;12.03;;
19364;SDS011;9818;48.382;10.850;2022-12-04T07:41:38;20.00;;;11.03;;
19364;SDS011;9818;48.382;10.850;2022-12-04T07:44:07;18.33;;;10.43;;
19364;SDS011;9818;48.382;10.850;2022-12-04T07:46:36;20.93;;;11.63;;
19364;SDS011;9818;48.382;10.850;2022-12-04T07:49:05;20.63;;;11.50;;
19364;SDS011;9818;48.382;10.850;2022-12-04T07:51:36;19.70;;;10.93;;
19364;SDS011;9818;48.382;10.850;2022-12-04T07:54:05;20.13;;;10.63;;
19364;SDS011;9818;48.382;10.850;2022-12-04T07:56:33;22.77;;;12.27;;
19364;SDS011;9818;48.382;10.850;2022-12-04T07:59:02;27.27;;;12.37;;
19364;SDS011;9818;48.382;10.850;2022-12-04T08:01:31;19.03;;;10.93;;
19364;SDS011;9818;48.382;10.850;2022-12-04T08:04:00;21.67;;;11.47;;
19364;SDS011;9818;48.382;10.850;2022-12-04T08:06:31;19.63;;;9.93;;
19364;SDS011;9818;48.382;10.850;2022-12-04T08:09:03;24.03;;;10.73;;
19364;SDS011;9818;48.382;10.850;2022-12-04T08:11:33;20.33;;;10.97;;
19364;SDS011;9818;48.382;10.850;2022-12-04T08:14:02;18.63;;;11.60;;
19364;SDS011;9818;48.382;10.850;2022-12-04T08:16:32;20.43;;;11.13;;
19364;SDS011;9818;48.382;10.850;2022-12-04T08:19:01;23.60;;;11.63;;
19364;SDS011;9818;48.382;10.850;2022-12-04T08:21:30;18.23;;;10.93;;
19364;SDS011;9818;48.382;10.850;2022-12-04T08:23:59;21.30;;;11.33;;
19364;SDS011;9818;48.382;10.850;2022-12-04T08:26:31;20.70;;;11.80;;
19364;SDS011;9818;48.382;10.850;2022-12-04T08:29:00;21.07;;;11.37;;
19364;SDS011;9818;48.382;10.850;2022-12-04T08:31:30;18.83;;;11.23;;
19364;SDS011;9818;48.382;10.850;2022-12-04T08:34:00;19.17;;;10.47;;
19364;SDS011;9818;48.382;10.850;2022-12-04T08:36:30;25.43;;;11.80;;
19364;SDS011;9818;48.382;10.850;2022-12-04T08:39:03;21.07;;;10.70;;
19364;SDS011;9818;48.382;10.850;2022-12-04T08:41:32;20.47;;;10.80;;
19364;SDS011;9818;48.382;10.850;2022-12-04T08:44:01;26.93;;;11.40;;
19364;SDS011;9818;48.382;10.850;2022-12-04T08:46:30;20.00;;;11.20;;
19364;SDS011;9818;48.382;10.850;2022-12-04T08:48:59;32.47;;;18.13;;
19364;SDS011;9818;48.382;10.850;2022-12-04T08:51:28;26.53;;;13.23;;
19364;SDS011;9818;48.382;10.850;2022-12-04T08:54:00;28.67;;;14.90;;
19364;SDS011;9818;48.382;10.850;2022-12-04T08:56:33;31.80;;;13.67;;
19364;SDS011;9818;48.382;10.850;2022-12-04T08:59:03;25.00;;;12.77;;
19364;SDS011;9818;48.382;10.850;2022-12-04T09:01:32;25.63;;;13.23;;
19364;SDS011;9818;48.382;10.850;2022-12-04T09:04:00;29.00;;;12.47;;
19364;SDS011;9818;48.382;10.850;2022-12-04T09:06:29;19.83;;;11.33;;
19364;SDS011;9818;48.382;10.850;2022-12-04T09:08:58;22.63;;;12.47;;
19364;SDS011;9818;48.382;10.850;2022-12-04T09:11:29;22.67;;;12.83;;
19364;SDS011;9818;48.382;10.850;2022-12-04T09:13:58;21.83;;;12.40;;
19364;SDS011;9818;48.382;10.850;2022-12-04T09:16:28;23.43;;;10.87;;
19364;SDS011;9818;48.382;10.850;2022-12-04T09:18:57;25.37;;;12.53;;
19364;SDS011;9818;48.382;10.850;2022-12-04T09:21:26;21.87;;;11.63;;
19364;SDS011;9818;48.382;10.850;2022-12-04T09:23:55;21.17;;;11.53;;
19364;SDS011;9818;48.382;10.850;2022-12-04T09:26:24;21.40;;;11.57;;
19364;SDS011;9818;48.382;10.850;2022-12-04T09:28:56;22.80;;;11.87;;
19364;SDS011;9818;48.382;10.850;2022-12-04T09:31:26;21.80;;;11.53;;
19364;SDS011;9818;48.382;10.850;2022-12-04T09:33:56;18.83;;;11.33;;
19364;SDS011;9818;48.382;10.850;2022-12-04T09:36:26;27.63;;;13.23;;
19364;SDS011;9818;48.382;10.850;2022-12-04T09:38:54;22.87;;;12.57;;
19364;SDS011;9818;48.382;10.850;2022-12-04T09:41:37;20.03;;;11.10;;
19364;SDS011;9818;48.382;10.850;2022-12-04T09:44:34;20.23;;;11.47;;
19364;SDS011;9818;48.382;10.850;2022-12-04T09:47:09;23.23;;;12.67;;
19364;SDS011;9818;48.382;10.850;2022-12-04T09:49:47;21.70;;;12.10;;
19364;SDS011;9818;48.382;10.850;2022-12-04T09:52:23;23.37;;;12.27;;
19364;SDS011;9818;48.382;10.850;2022-12-04T09:55:01;24.57;;;13.10;;
19364;SDS011;9818;48.382;10.850;2022-12-04T09:57:34;27.07;;;12.30;;
19364;SDS011;9818;48.382;10.850;2022-12-04T10:00:09;20.70;;;10.87;;
19364;SDS011;9818;48.382;10.850;2022-12-04T10:02:41;21.77;;;11.27;;
19364;SDS011;9818;48.382;10.850;2022-12-04T10:05:15;21.30;;;11.30;;
19364;SDS011;9818;48.382;10.850;2022-12-04T10:07:47;21.40;;;11.97;;
19364;SDS011;9818;48.382;10.850;2022-12-04T10:10:29;19.03;;;10.57;;
19364;SDS011;9818;48.382;10.850;2022-12-04T10:13:08;22.00;;;10.90;;
19364;SDS011;9818;48.382;10.850;2022-12-04T10:15:51;20.57;;;12.20;;
19364;SDS011;9818;48.382;10.850;2022-12-04T10:18:28;20.27;;;11.00;;
19364;SDS011;9818;48.382;10.850;2022-12-04T10:21:14;17.67;;;10.10;;
19364;SDS011;9818;48.382;10.850;2022-12-04T10:24:18;18.57;;;9.87;;
19364;SDS011;9818;48.382;10.850;2022-12-04T10:26:56;16.10;;;10.47;;
19364;SDS011;9818;48.382;10.850;2022-12-04T10:29:29;19.03;;;10.60;;
19364;SDS011;9818;48.382;10.850;2022-12-04T10:32:05;18.60;;;10.03;;
19364;SDS011;9818;48.382;10.850;2022-12-04T10:34:44;19.37;;;11.30;;
19364;SDS011;9818;48.382;10.850;2022-12-04T10:37:15;18.43;;;11.13;;
19364;SDS011;9818;48.382;10.850;2022-12-04T10:39:46;20.47;;;11.20;;
19364;SDS011;9818;48.382;10.850;2022-12-04T10:42:29;20.27;;;10.17;;
19364;SDS011;9818;48.382;10.850;2022-12-04T10:45:02;19.43;;;10.27;;
19364;SDS011;9818;48.382;10.850;2022-12-04T10:47:34;17.70;;;9.63;;
19364;SDS011;9818;48.382;10.850;2022-12-04T10:50:04;17.33;;;10.37;;
19364;SDS011;9818;48.382;10.850;2022-12-04T10:52:42;17.23;;;10.43;;
19364;SDS011;9818;48.382;10.850;2022-12-04T10:55:11;19.00;;;11.27;;
19364;SDS011;9818;48.382;10.850;2022-12-04T10:57:41;19.83;;;11.13;;
19364;SDS011;9818;48.382;10.850;2022-12-04T11:00:23;21.00;;;11.37;;
19364;SDS011;9818;48.382;10.850;2022-12-04T11:02:59;22.13;;;11.03;;
19364;SDS011;9818;48.382;10.850;2022-12-04T11:05:30;23.30;;;11.20;;
19364;SDS011;9818;48.382;10.850;2022-12-04T11:08:02;20.57;;;12.23;;
19364;SDS011;9818;48.382;10.850;2022-12-04T11:10:34;21.50;;;11.87;;
19364;SDS011;9818;48.382;10.850;2022-12-04T11:13:05;20.77;;;11.27;;
19364;SDS011;9818;48.382;10.850;2022-12-04T11:15:41;19.97;;;10.63;;
19364;SDS011;9818;48.382;10.850;2022-12-04T11:18:17;18.60;;;10.40;;
19364;SDS011;9818;48.382;10.850;2022-12-04T11:20:50;21.60;;;10.87;;
19364;SDS011;9818;48.382;10.850;2022-12-04T11:23:21;17.87;;;11.13;;
19364;SDS011;9818;48.382;10.850;2022-12-04T11:25:51;18.70;;;11.10;;
19364;SDS011;9818;48.382;10.850;2022-12-04T11:28:24;19.23;;;10.37;;
19364;SDS011;9818;48.382;10.850;2022-12-04T11:30:55;20.37;;;10.57;;
19364;SDS011;9818;48.382;10.850;2022-12-04T11:33:33;17.23;;;9.40;;
19364;SDS011;9818;48.382;10.850;2022-12-04T11:36:06;16.97;;;9.83;;
19364;SDS011;9818;48.382;10.850;2022-12-04T11:38:46;15.63;;;10.07;;
19364;SDS011;9818;48.382;10.850;2022-12-04T11:41:22;19.63;;;11.00;;
19364;SDS011;9818;48.382;10.850;2022-12-04T11:43:53;17.77;;;10.20;;
19364;SDS011;9818;48.382;10.850;2022-12-04T23:33:32;9.93;;;6.67;;
19364;SDS011;9818;48.382;10.850;2022-12-04T23:36:01;9.07;;;5.83;;
